createdAt,value
2018-01-01T00:00:11.235Z,43.90
2018-01-01T00:02:40.246Z,44.00
2018-01-01T00:05:08.480Z,44.00
2018-01-01T00:07:36.703Z,44.00
2018-01-01T00:10:04.985Z,44.00
2018-01-01T00:12:33.239Z,44.00
2018-01-01T00:15:01.537Z,44.00
2018-01-01T00:17:29.831Z,44.00
2018-01-01T00:19:58.079Z,44.00
2018-01-01T00:22:26.458Z,43.90
2018-01-01T00:24:54.718Z,43.90
2018-01-01T00:27:22.957Z,43.90
2018-01-01T00:29:51.250Z,43.80
2018-01-01T00:32:20.371Z,44.00
2018-01-01T00:34:50.431Z,43.90
2018-01-01T00:37:18.699Z,43.90
2018-01-01T00:39:46.962Z,43.90
2018-01-01T00:42:15.235Z,43.90
2018-01-01T00:44:43.507Z,44.00
2018-01-01T00:47:11.799Z,43.90
2018-01-01T00:49:40.056Z,44.00
2018-01-01T00:52:08.324Z,44.00
2018-01-01T00:54:36.577Z,44.00
2018-01-01T00:57:05.599Z,44.10
2018-01-01T00:59:33.830Z,44.00
2018-01-01T01:02:02.859Z,44.30
2018-01-01T01:04:31.201Z,44.20
2018-01-01T01:07:00.186Z,44.20
2018-01-01T01:09:28.429Z,44.10
2018-01-01T01:11:56.795Z,44.20
2018-01-01T01:14:25.046Z,44.20
2018-01-01T01:16:53.307Z,44.10
2018-01-01T01:19:22.365Z,44.20
2018-01-01T01:21:50.708Z,44.20
2018-01-01T01:24:18.934Z,44.10
2018-01-01T01:26:47.942Z,44.70
2018-01-01T01:29:16.944Z,44.00
2018-01-01T01:31:45.316Z,44.00
2018-01-01T01:34:14.520Z,44.00
2018-01-01T01:36:42.744Z,43.90
2018-01-01T01:39:11.001Z,44.00
2018-01-01T01:41:39.292Z,44.00
2018-01-01T01:44:07.526Z,43.80
2018-01-01T01:46:35.765Z,43.80
2018-01-01T01:49:04.054Z,43.70
2018-01-01T01:51:33.050Z,43.80
2018-01-01T01:54:02.153Z,43.60
2018-01-01T01:56:30.392Z,43.60
2018-01-01T01:58:58.711Z,43.60
2018-01-01T02:01:26.960Z,43.60
2018-01-01T02:03:55.367Z,43.60
2018-01-01T02:06:23.655Z,43.50
2018-01-01T02:08:51.904Z,43.50
2018-01-01T02:11:20.906Z,43.40
2018-01-01T02:13:49.158Z,43.50
2018-01-01T02:16:17.397Z,43.50
2018-01-01T02:18:45.691Z,43.40
2018-01-01T02:21:13.929Z,43.40
2018-01-01T02:23:42.146Z,43.40
2018-01-01T02:26:10.386Z,43.40
2018-01-01T02:28:38.621Z,43.40
2018-01-01T02:31:06.857Z,43.40
2018-01-01T02:33:35.077Z,43.40
2018-01-01T02:36:03.339Z,43.50
2018-01-01T02:38:31.759Z,43.40
2018-01-01T02:40:59.980Z,43.50
2018-01-01T02:43:28.985Z,43.40
2018-01-01T02:45:57.260Z,43.40
2018-01-01T02:48:26.367Z,43.40
2018-01-01T02:50:54.623Z,43.30
2018-01-01T02:53:23.736Z,43.30
2018-01-01T02:55:51.942Z,43.20
2018-01-01T02:58:20.225Z,43.20
2018-01-01T03:00:48.597Z,43.20
2018-01-01T03:03:16.859Z,43.20
2018-01-01T03:05:45.138Z,43.30
2018-01-01T03:08:13.533Z,43.20
2018-01-01T03:10:41.783Z,43.20
2018-01-01T03:13:10.119Z,43.10
2018-01-01T03:15:39.098Z,43.10
2018-01-01T03:18:07.330Z,43.10
2018-01-01T03:20:35.566Z,43.00
2018-01-01T03:23:04.594Z,43.10
2018-01-01T03:25:32.848Z,43.10
2018-01-01T03:28:01.209Z,43.10
2018-01-01T03:30:30.325Z,43.00
2018-01-01T03:32:58.594Z,43.00
2018-01-01T03:35:26.812Z,43.00
2018-01-01T03:37:55.030Z,43.00
2018-01-01T03:40:24.137Z,43.00
2018-01-01T03:42:52.383Z,42.90
2018-01-01T03:45:20.592Z,43.00
2018-01-01T03:47:48.823Z,43.60
2018-01-01T03:50:17.042Z,42.90
2018-01-01T03:52:45.329Z,42.90
2018-01-01T03:55:13.639Z,42.80
2018-01-01T03:57:41.850Z,42.80
2018-01-01T04:00:10.830Z,42.80
2018-01-01T04:02:39.832Z,42.80
2018-01-01T04:05:08.936Z,42.70
2018-01-01T04:07:37.156Z,42.70
2018-01-01T04:10:05.453Z,42.70
2018-01-01T04:15:08.079Z,42.60
2018-01-01T04:17:36.297Z,42.60
2018-01-01T04:20:04.521Z,42.60
2018-01-01T04:22:33.531Z,42.50
2018-01-01T04:25:01.772Z,42.50
2018-01-01T04:27:29.988Z,42.40
2018-01-01T04:29:58.198Z,42.50
2018-01-01T04:32:26.418Z,42.40
2018-01-01T04:34:54.635Z,42.40
2018-01-01T04:37:22.990Z,42.40
2018-01-01T04:39:51.233Z,42.40
2018-01-01T04:42:20.302Z,42.30
2018-01-01T04:44:48.593Z,42.20
2018-01-01T04:47:17.562Z,42.20
2018-01-01T04:49:45.769Z,42.10
2018-01-01T04:52:14.761Z,42.10
2018-01-01T04:54:43.738Z,42.10
2018-01-01T04:57:12.909Z,42.10
2018-01-01T04:59:41.162Z,42.00
2018-01-01T05:02:09.386Z,42.00
2018-01-01T05:04:37.621Z,42.00
2018-01-01T05:07:05.835Z,42.00
2018-01-01T05:09:34.827Z,41.90
2018-01-01T05:12:03.945Z,41.90
2018-01-01T05:14:32.190Z,41.90
2018-01-01T05:17:00.418Z,41.80
2018-01-01T05:19:28.733Z,41.80
2018-01-01T05:21:56.995Z,41.90
2018-01-01T05:24:25.235Z,41.90
2018-01-01T05:26:53.525Z,41.90
2018-01-01T05:29:21.763Z,41.90
2018-01-01T05:31:49.994Z,41.90
2018-01-01T05:34:18.311Z,41.80
2018-01-01T05:36:47.330Z,41.80
2018-01-01T05:39:15.656Z,41.70
2018-01-01T05:41:43.836Z,41.70
2018-01-01T05:44:12.838Z,41.80
2018-01-01T05:46:41.825Z,41.80
2018-01-01T05:49:10.821Z,41.80
2018-01-01T05:51:39.800Z,41.80
2018-01-01T05:54:08.047Z,41.80
2018-01-01T05:56:36.261Z,41.30
2018-01-01T05:59:05.231Z,41.70
2018-01-01T06:01:33.457Z,41.70
2018-01-01T06:04:01.685Z,41.70
2018-01-01T06:06:29.942Z,41.60
2018-01-01T06:08:58.160Z,41.50
2018-01-01T06:11:26.373Z,41.40
2018-01-01T06:13:54.592Z,41.50
2018-01-01T06:16:23.641Z,41.50
2018-01-01T06:18:51.851Z,41.40
2018-01-01T06:21:20.107Z,41.40
2018-01-01T06:23:48.358Z,41.40
2018-01-01T06:26:16.573Z,41.30
2018-01-01T06:28:45.548Z,41.60
2018-01-01T06:31:13.746Z,41.40
2018-01-01T06:33:42.772Z,41.50
2018-01-01T06:36:11.014Z,41.50
2018-01-01T06:38:39.989Z,41.40
2018-01-01T06:41:08.217Z,41.30
2018-01-01T06:43:36.437Z,41.20
2018-01-01T06:46:04.658Z,41.10
2018-01-01T06:48:33.271Z,41.00
2018-01-01T06:51:01.503Z,40.70
2018-01-01T06:53:30.609Z,40.60
2018-01-01T06:55:58.839Z,40.60
2018-01-01T06:58:27.115Z,40.50
2018-01-01T07:00:55.356Z,40.50
2018-01-01T07:03:23.581Z,40.30
2018-01-01T07:05:53.390Z,40.10
2018-01-01T07:08:22.413Z,40.10
2018-01-01T07:10:50.706Z,40.00
2018-01-01T07:13:18.905Z,40.00
2018-01-01T07:15:47.114Z,39.90
2018-01-01T07:18:16.107Z,39.80
2018-01-01T07:20:45.200Z,39.80
2018-01-01T07:23:14.842Z,39.80
2018-01-01T07:25:43.055Z,39.70
2018-01-01T07:28:11.314Z,39.70
2018-01-01T07:30:39.543Z,39.70
2018-01-01T07:33:07.752Z,39.70
2018-01-01T07:35:35.977Z,39.80
2018-01-01T07:38:04.942Z,39.80
2018-01-01T07:40:33.253Z,39.80
2018-01-01T07:43:01.448Z,39.70
2018-01-01T07:45:29.686Z,39.70
2018-01-01T07:47:58.682Z,39.50
2018-01-01T07:50:27.710Z,39.60
2018-01-01T07:52:55.963Z,39.60
2018-01-01T07:55:24.982Z,39.50
2018-01-01T07:57:53.215Z,39.50
2018-01-01T08:00:22.208Z,39.30
2018-01-01T08:02:51.175Z,39.30
2018-01-01T08:05:19.404Z,39.30
2018-01-01T08:07:47.630Z,39.30
2018-01-01T08:10:15.862Z,39.30
2018-01-01T08:12:44.091Z,39.30
2018-01-01T08:15:12.576Z,39.20
2018-01-01T08:17:41.571Z,39.10
2018-01-01T08:20:10.588Z,39.00
2018-01-01T08:22:38.890Z,39.00
2018-01-01T08:25:07.158Z,39.00
2018-01-01T08:27:35.396Z,39.00
2018-01-01T08:30:03.626Z,38.90
2018-01-01T08:32:31.866Z,38.90
2018-01-01T08:35:00.122Z,38.80
2018-01-01T08:37:29.747Z,38.70
2018-01-01T08:39:58.022Z,38.70
2018-01-01T08:42:26.329Z,38.60
2018-01-01T08:44:54.572Z,38.70
2018-01-01T08:47:23.471Z,38.60
2018-01-01T08:49:51.724Z,38.60
2018-01-01T08:52:20.829Z,38.70
2018-01-01T08:54:49.142Z,38.70
2018-01-01T08:57:17.397Z,38.70
2018-01-01T08:59:45.615Z,38.60
2018-01-01T09:02:13.814Z,38.60
2018-01-01T09:04:42.143Z,38.50
2018-01-01T09:07:10.368Z,38.50
2018-01-01T09:09:38.638Z,38.50
2018-01-01T09:12:07.666Z,38.40
2018-01-01T09:14:35.911Z,38.40
2018-01-01T09:17:04.209Z,38.30
2018-01-01T09:19:32.427Z,38.40
2018-01-01T09:22:00.685Z,38.40
2018-01-01T09:24:28.908Z,38.30
2018-01-01T09:26:57.151Z,38.20
2018-01-01T09:29:25.378Z,38.70
2018-01-01T09:31:53.723Z,38.10
2018-01-01T09:34:21.940Z,38.20
2018-01-01T09:36:50.227Z,38.10
2018-01-01T09:39:18.449Z,38.10
2018-01-01T09:41:47.479Z,38.10
2018-01-01T09:44:15.783Z,38.00
2018-01-01T09:46:44.160Z,38.10
2018-01-01T09:49:12.416Z,38.10
2018-01-01T09:51:40.733Z,38.00
2018-01-01T09:54:09.856Z,38.20
2018-01-01T09:56:38.116Z,37.70
2018-01-01T09:59:06.446Z,37.70
2018-01-01T10:01:34.725Z,37.80
2018-01-01T10:04:02.953Z,37.80
2018-01-01T10:06:31.176Z,38.40
2018-01-01T10:08:59.449Z,37.80
2018-01-01T10:11:28.604Z,37.70
2018-01-01T10:13:56.831Z,37.60
2018-01-01T10:16:25.048Z,37.60
2018-01-01T10:18:54.308Z,37.60
2018-01-01T10:21:22.634Z,37.40
2018-01-01T10:23:50.851Z,37.50
2018-01-01T10:26:19.090Z,37.40
2018-01-01T10:28:47.413Z,37.90
2018-01-01T10:31:15.776Z,37.50
2018-01-01T10:33:44.012Z,37.40
2018-01-01T10:36:12.272Z,37.40
2018-01-01T10:38:40.705Z,37.20
2018-01-01T10:41:08.949Z,37.20
2018-01-01T10:43:37.190Z,37.30
2018-01-01T10:46:07.846Z,37.20
2018-01-01T10:48:36.194Z,37.20
2018-01-01T10:51:05.216Z,37.10
2018-01-01T10:53:33.452Z,37.10
2018-01-01T10:56:02.828Z,37.00
2018-01-01T10:58:31.064Z,37.00
2018-01-01T11:00:59.319Z,37.10
2018-01-01T11:03:28.321Z,37.10
2018-01-01T11:05:56.551Z,37.10
2018-01-01T11:08:24.772Z,37.10
2018-01-01T11:10:52.984Z,37.00
2018-01-01T11:13:22.149Z,37.00
2018-01-01T11:15:51.246Z,37.10
2018-01-01T11:18:19.480Z,36.90
2018-01-01T11:20:47.726Z,36.90
2018-01-01T11:23:16.934Z,36.90
2018-01-01T11:25:45.235Z,37.40
2018-01-01T11:28:14.754Z,36.80
2018-01-01T11:30:43.794Z,36.70
2018-01-01T11:33:13.050Z,36.70
2018-01-01T11:35:43.485Z,36.60
2018-01-01T11:38:11.725Z,36.60
2018-01-01T11:40:39.976Z,36.60
2018-01-01T11:43:08.294Z,36.70
2018-01-01T11:45:38.570Z,36.80
2018-01-01T11:48:07.525Z,36.70
2018-01-01T11:50:35.786Z,36.70
2018-01-01T11:53:05.332Z,36.60
2018-01-01T11:55:33.583Z,36.70
2018-01-01T11:58:01.834Z,36.60
2018-01-01T12:00:30.100Z,36.70
2018-01-01T12:02:59.132Z,36.50
2018-01-01T12:05:27.419Z,36.50
2018-01-01T12:07:55.815Z,36.50
2018-01-01T12:10:24.085Z,36.50
2018-01-01T12:12:52.342Z,36.50
2018-01-01T12:15:20.579Z,36.50
2018-01-01T12:17:49.613Z,36.50
2018-01-01T12:20:17.923Z,36.50
2018-01-01T12:22:46.181Z,36.30
2018-01-01T12:25:14.419Z,36.00
2018-01-01T12:27:42.694Z,36.00
2018-01-01T12:30:10.986Z,35.90
2018-01-01T12:32:39.190Z,36.10
2018-01-01T12:35:07.488Z,36.00
2018-01-01T12:37:36.571Z,36.00
2018-01-01T12:40:04.867Z,36.00
2018-01-01T12:42:33.131Z,36.00
2018-01-01T12:45:02.148Z,36.10
2018-01-01T12:47:30.393Z,36.00
2018-01-01T12:49:58.649Z,36.00
2018-01-01T12:52:26.876Z,36.00
2018-01-01T12:54:55.155Z,35.90
2018-01-01T12:57:24.173Z,36.00
2018-01-01T12:59:52.493Z,35.90
2018-01-01T13:02:21.570Z,35.90
2018-01-01T13:04:49.881Z,35.80
2018-01-01T13:07:18.102Z,35.80
2018-01-01T13:09:46.339Z,35.60
2018-01-01T13:12:14.664Z,35.70
2018-01-01T13:14:42.949Z,35.50
2018-01-01T13:17:11.182Z,35.50
2018-01-01T13:19:39.496Z,35.60
2018-01-01T13:22:07.828Z,35.30
2018-01-01T13:24:36.105Z,35.40
2018-01-01T13:27:04.568Z,35.30
2018-01-01T13:29:32.782Z,35.40
2018-01-01T13:32:01.072Z,35.20
2018-01-01T13:34:29.305Z,35.30
2018-01-01T13:36:57.547Z,35.60
2018-01-01T13:39:26.726Z,35.60
2018-01-01T13:41:54.999Z,35.60
2018-01-01T13:44:23.321Z,35.50
2018-01-01T13:46:51.554Z,35.50
2018-01-01T13:49:19.799Z,35.60
2018-01-01T13:51:48.049Z,35.60
2018-01-01T13:54:16.305Z,35.60
2018-01-01T13:56:44.563Z,35.60
2018-01-01T13:59:12.803Z,35.60
2018-01-01T14:01:41.027Z,35.60
2018-01-01T14:04:10.035Z,35.60
2018-01-01T14:06:39.246Z,35.40
2018-01-01T14:09:07.578Z,35.50
2018-01-01T14:11:35.802Z,35.60
2018-01-01T14:14:04.130Z,35.80
2018-01-01T14:16:33.133Z,35.50
2018-01-01T14:19:01.443Z,35.50
2018-01-01T14:21:29.669Z,35.60
2018-01-01T14:23:57.976Z,35.70
2018-01-01T14:26:26.237Z,35.50
2018-01-01T14:28:55.240Z,35.70
2018-01-01T14:31:24.265Z,35.60
2018-01-01T14:33:52.692Z,35.60
2018-01-01T14:36:21.853Z,35.60
2018-01-01T14:38:50.115Z,35.60
2018-01-01T14:41:18.409Z,35.70
2018-01-01T14:43:46.801Z,35.70
2018-01-01T14:46:15.215Z,35.60
2018-01-01T14:48:43.467Z,35.60
2018-01-01T14:51:12.549Z,35.70
2018-01-01T14:53:40.840Z,35.70
2018-01-01T14:56:09.883Z,35.70
2018-01-01T14:58:38.165Z,35.60
2018-01-01T15:01:13.338Z,35.60
2018-01-01T15:03:41.587Z,35.50
2018-01-01T15:06:12.474Z,35.60
2018-01-01T15:08:40.804Z,35.50
2018-01-01T15:11:09.231Z,35.60
2018-01-01T15:13:37.635Z,35.60
2018-01-01T15:16:05.892Z,35.60
2018-01-01T15:18:34.126Z,35.60
2018-01-01T15:21:02.407Z,35.50
2018-01-01T15:23:31.627Z,35.50
2018-01-01T15:26:00.859Z,35.40
2018-01-01T15:28:29.263Z,35.30
2018-01-01T15:30:57.525Z,35.50
2018-01-01T15:33:25.832Z,35.40
2018-01-01T15:35:54.172Z,35.60
2018-01-01T15:38:22.478Z,35.50
2018-01-01T15:40:50.963Z,35.50
2018-01-01T15:43:22.371Z,35.40
2018-01-01T15:45:50.854Z,35.40
2018-01-01T15:48:19.162Z,35.40
2018-01-01T15:50:47.674Z,35.40
2018-01-01T15:53:16.851Z,35.40
2018-01-01T15:55:45.412Z,35.40
2018-01-01T15:58:13.671Z,36.00
2018-01-01T16:00:41.885Z,35.80
2018-01-01T16:03:10.910Z,35.30
2018-01-01T16:05:39.291Z,35.10
2018-01-01T16:08:07.564Z,35.20
2018-01-01T16:10:35.827Z,35.20
2018-01-01T16:13:04.063Z,35.20
2018-01-01T16:15:32.404Z,35.20
2018-01-01T16:18:00.788Z,35.10
2018-01-01T16:20:29.153Z,35.20
2018-01-01T16:22:57.506Z,35.10
2018-01-01T16:25:26.589Z,35.10
2018-01-01T16:27:55.641Z,35.20
2018-01-01T16:30:23.911Z,35.20
2018-01-01T16:32:53.210Z,35.10
2018-01-01T16:35:21.695Z,35.20
2018-01-01T16:37:54.402Z,35.20
2018-01-01T16:40:23.381Z,35.20
2018-01-01T16:42:52.185Z,35.10
2018-01-01T16:45:20.521Z,35.10
2018-01-01T16:47:48.809Z,35.20
2018-01-01T16:50:17.190Z,35.10
2018-01-01T16:52:45.610Z,35.00
2018-01-01T16:55:14.684Z,35.10
2018-01-01T16:57:43.053Z,35.10
2018-01-01T17:00:12.026Z,35.00
2018-01-01T17:02:41.592Z,35.10
2018-01-01T17:05:11.886Z,35.00
2018-01-01T17:07:40.182Z,35.10
2018-01-01T17:10:11.182Z,35.20
2018-01-01T17:12:40.270Z,35.10
2018-01-01T17:15:08.529Z,35.00
2018-01-01T17:17:36.932Z,35.10
2018-01-01T17:20:05.220Z,35.10
2018-01-01T17:22:33.656Z,35.10
2018-01-01T17:25:01.985Z,35.00
2018-01-01T17:27:31.141Z,35.00
2018-01-01T17:29:59.520Z,35.00
2018-01-01T17:32:27.835Z,35.00
2018-01-01T17:34:58.243Z,35.00
2018-01-01T17:37:26.515Z,35.00
2018-01-01T17:39:54.782Z,34.90
2018-01-01T17:42:23.955Z,35.00
2018-01-01T17:44:52.175Z,35.00
2018-01-01T17:47:20.487Z,35.00
2018-01-01T17:49:48.739Z,34.80
2018-01-01T17:52:17.765Z,35.10
2018-01-01T17:54:46.003Z,35.60
2018-01-01T17:57:14.994Z,35.00
2018-01-01T17:59:44.114Z,35.50
2018-01-01T18:02:12.331Z,34.90
2018-01-01T18:04:40.589Z,34.90
2018-01-01T18:07:09.057Z,34.80
2018-01-01T18:09:37.326Z,34.70
2018-01-01T18:12:05.611Z,34.80
2018-01-01T18:14:33.908Z,34.70
2018-01-01T18:17:02.164Z,34.70
2018-01-01T18:19:30.454Z,34.60
2018-01-01T18:21:58.745Z,34.70
2018-01-01T18:24:27.023Z,34.60
2018-01-01T18:26:55.257Z,34.70
2018-01-01T18:29:23.528Z,34.60
2018-01-01T18:31:51.755Z,34.60
2018-01-01T18:34:20.237Z,34.60
2018-01-01T18:36:49.326Z,34.50
2018-01-01T18:39:17.808Z,34.50
2018-01-01T18:41:46.071Z,34.50
2018-01-01T18:44:14.341Z,34.60
2018-01-01T18:46:42.632Z,34.50
2018-01-01T18:49:10.860Z,34.40
2018-01-01T18:51:39.772Z,34.50
2018-01-01T18:54:08.068Z,34.40
2018-01-01T18:56:36.343Z,34.40
2018-01-01T18:59:05.160Z,34.30
2018-01-01T19:01:34.242Z,34.30
2018-01-01T19:04:04.329Z,34.40
2018-01-01T19:06:32.585Z,34.30
2018-01-01T19:09:00.910Z,34.40
2018-01-01T19:11:29.237Z,34.40
2018-01-01T19:13:57.646Z,34.40
2018-01-01T19:16:25.935Z,34.40
2018-01-01T19:18:54.359Z,34.30
2018-01-01T19:21:22.676Z,34.40
2018-01-01T19:23:51.988Z,34.30
2018-01-01T19:26:20.211Z,34.30
2018-01-01T19:28:51.753Z,34.30
2018-01-01T19:31:20.109Z,34.30
2018-01-01T19:33:48.491Z,34.30
2018-01-01T19:36:17.547Z,34.30
2018-01-01T19:38:45.924Z,34.30
2018-01-01T19:41:14.174Z,34.30
2018-01-01T19:43:47.636Z,34.30
2018-01-01T19:46:16.638Z,34.20
2018-01-01T19:48:45.667Z,34.20
2018-01-01T19:51:16.338Z,34.20
2018-01-01T19:53:44.593Z,34.20
2018-01-01T19:56:13.765Z,34.20
2018-01-01T19:58:48.855Z,34.10
2018-01-01T20:01:17.895Z,34.00
2018-01-01T20:03:46.156Z,34.00
2018-01-01T20:06:14.440Z,34.00
2018-01-01T20:08:42.756Z,33.90
2018-01-01T20:11:11.029Z,34.00
2018-01-01T20:13:39.316Z,34.00
2018-01-01T20:16:07.559Z,34.00
2018-01-01T20:18:35.818Z,34.60
2018-01-01T20:21:04.078Z,33.90
2018-01-01T20:23:32.313Z,33.90
2018-01-01T20:26:00.591Z,33.90
2018-01-01T20:28:28.868Z,33.90
2018-01-01T20:30:58.423Z,34.10
2018-01-01T20:33:26.716Z,33.80
2018-01-01T20:35:54.975Z,33.90
2018-01-01T20:38:23.222Z,33.80
2018-01-01T20:40:53.356Z,33.90
2018-01-01T20:43:21.658Z,33.90
2018-01-01T20:45:50.031Z,33.90
2018-01-01T20:48:18.274Z,33.90
2018-01-01T20:50:46.532Z,33.80
2018-01-01T20:53:15.628Z,33.80
2018-01-01T20:55:44.673Z,33.80
2018-01-01T20:58:12.932Z,33.80
2018-01-01T21:00:41.195Z,33.80
2018-01-01T21:03:09.455Z,33.80
2018-01-01T21:05:37.734Z,33.90
2018-01-01T21:08:06.976Z,33.70
2018-01-01T21:10:35.230Z,33.70
2018-01-01T21:13:03.607Z,33.80
2018-01-01T21:15:31.829Z,33.80
2018-01-01T21:18:00.084Z,33.80
2018-01-01T21:20:28.328Z,33.80
2018-01-01T21:22:56.646Z,33.90
2018-01-01T21:25:24.941Z,33.80
2018-01-01T21:27:53.204Z,33.70
2018-01-01T21:30:21.454Z,33.70
2018-01-01T21:32:49.840Z,34.30
2018-01-01T21:35:18.145Z,33.90
2018-01-01T21:37:47.209Z,33.70
2018-01-01T21:40:15.459Z,33.70
2018-01-01T21:42:43.706Z,33.70
2018-01-01T21:45:11.947Z,33.70
2018-01-01T21:47:40.212Z,33.70
2018-01-01T21:50:08.489Z,33.80
2018-01-01T21:52:36.751Z,33.80
2018-01-01T21:55:04.970Z,33.80
2018-01-01T21:57:33.970Z,33.80
2018-01-01T22:00:03.102Z,33.70
2018-01-01T22:02:31.356Z,33.70
2018-01-01T22:04:59.657Z,33.60
2018-01-01T22:07:27.882Z,33.70
2018-01-01T22:09:57.002Z,33.90
2018-01-01T22:12:25.319Z,33.80
2018-01-01T22:14:53.607Z,33.70
2018-01-01T22:17:21.864Z,33.90
2018-01-01T22:19:50.122Z,33.90
2018-01-01T22:22:18.341Z,34.00
2018-01-01T22:24:47.323Z,34.10
2018-01-01T22:27:15.609Z,34.00
2018-01-01T22:29:43.859Z,34.00
2018-01-01T22:32:12.127Z,34.00
2018-01-01T22:34:42.618Z,34.10
2018-01-01T22:37:11.724Z,34.20
2018-01-01T22:39:40.507Z,34.20
2018-01-01T22:42:08.787Z,34.20
2018-01-01T22:44:37.043Z,34.30
2018-01-01T22:47:05.284Z,34.30
2018-01-01T22:49:33.536Z,34.30
2018-01-01T22:52:08.367Z,34.40
2018-01-01T22:54:36.761Z,34.50
2018-01-01T22:57:05.933Z,34.60
2018-01-01T22:59:34.322Z,34.50
2018-01-01T23:02:02.610Z,34.50
2018-01-01T23:04:30.879Z,34.50
2018-01-01T23:06:59.281Z,34.60
2018-01-01T23:09:28.494Z,34.70
2018-01-01T23:11:56.754Z,34.70
2018-01-01T23:14:25.819Z,34.80
2018-01-01T23:16:54.088Z,34.70
2018-01-01T23:19:22.372Z,34.80
2018-01-01T23:21:50.649Z,34.80
2018-01-01T23:24:19.015Z,34.90
2018-01-01T23:26:47.378Z,34.90
2018-01-01T23:29:15.739Z,35.00
2018-01-01T23:31:44.031Z,35.00
2018-01-01T23:34:12.315Z,35.00
2018-01-01T23:36:40.637Z,35.10
2018-01-01T23:39:09.770Z,35.10
2018-01-01T23:41:38.130Z,35.10
2018-01-01T23:44:06.495Z,35.10
2018-01-01T23:46:34.791Z,35.10
2018-01-01T23:49:03.105Z,35.10
2018-01-01T23:51:31.646Z,35.10
2018-01-01T23:54:00.128Z,35.10
2018-01-01T23:56:28.462Z,35.10
2018-01-01T23:58:57.534Z,35.10
